Time,TemperatureF,DewpointF,PressureIn,WindDirection,WindDirectionDegrees,WindSpeedMPH,WindSpeedGustMPH,Humidity,HourlyPrecipIn,Conditions,Clouds,dailyrainin,SoftwareType,DateUTC
2013-05-04 00:01:00,69.0,48.0,29.74,NNW,335,0.0,-999.0,48,-99.99,,,-99.99,,2013-05-04 07:01:00,
2013-05-04 00:11:00,69.0,48.0,29.74,NNW,335,0.0,-999.0,48,-99.99,,,-99.99,,2013-05-04 07:11:00,
2013-05-04 00:21:00,69.0,49.0,29.74,NNW,335,0.0,-999.0,49,-99.99,,,-99.99,,2013-05-04 07:21:00,
2013-05-04 00:31:00,68.0,49.0,29.74,NNW,335,0.0,-999.0,50,-99.99,,,-99.99,,2013-05-04 07:31:00,
2013-05-04 00:41:00,68.0,49.0,29.74,NNW,335,0.0,-999.0,50,-99.99,,,-99.99,,2013-05-04 07:41:00,
2013-05-04 00:52:00,67.0,49.0,29.74,NNW,335,0.0,-999.0,52,-99.99,,,-99.99,,2013-05-04 07:52:00,
2013-05-04 01:01:00,67.0,49.0,29.74,NNW,341,0.0,-999.0,53,-99.99,,,-99.99,,2013-05-04 08:01:00,
2013-05-04 01:11:00,67.0,49.0,29.74,NNW,341,0.0,-999.0,53,-99.99,,,-99.99,,2013-05-04 08:11:00,
2013-05-04 01:21:00,66.0,49.0,29.73,NNW,341,0.0,-999.0,55,-99.99,,,-99.99,,2013-05-04 08:21:00,
2013-05-04 01:31:00,66.0,50.0,29.73,NNW,341,0.0,-999.0,56,-99.99,,,-99.99,,2013-05-04 08:31:00,
2013-05-04 01:41:00,66.0,50.0,29.73,NNW,341,0.0,-999.0,56,-99.99,,,-99.99,,2013-05-04 08:41:00,
2013-05-04 01:52:00,65.0,49.0,29.72,NNW,341,0.0,-999.0,57,-99.99,,,-99.99,,2013-05-04 08:52:00,
2013-05-04 02:02:00,64.0,49.0,29.72,NNW,341,0.0,-999.0,59,-99.99,,,-99.99,,2013-05-04 09:02:00,
2013-05-04 02:11:00,64.0,49.0,29.72,NNW,341,0.0,-999.0,59,-99.99,,,-99.99,,2013-05-04 09:11:00,
2013-05-04 02:21:00,64.0,49.0,29.71,NNW,341,0.0,-999.0,59,-99.99,,,-99.99,,2013-05-04 09:21:00,
2013-05-04 02:32:00,63.0,49.0,29.71,NNW,341,0.0,-999.0,60,-99.99,,,-99.99,,2013-05-04 09:32:00,
2013-05-04 02:42:00,63.0,49.0,29.71,NNW,341,0.0,-999.0,60,-99.99,,,-99.99,,2013-05-04 09:42:00,
2013-05-04 02:52:00,62.0,49.0,29.71,NNW,341,0.0,-999.0,62,-99.99,,,-99.99,,2013-05-04 09:52:00,
2013-05-04 03:02:00,62.0,48.0,29.71,NNW,329,1.0,-999.0,61,-99.99,,,-99.99,,2013-05-04 10:02:00,
2013-05-04 03:12:00,62.0,48.0,29.71,NNW,329,1.0,-999.0,61,-99.99,,,-99.99,,2013-05-04 10:12:00,
2013-05-04 03:22:00,62.0,48.0,29.71,NW,304,0.0,-999.0,61,-99.99,,,-99.99,,2013-05-04 10:22:00,
2013-05-04 03:32:00,62.0,48.0,29.71,NW,306,0.0,-999.0,61,-99.99,,,-99.99,,2013-05-04 10:32:00,
2013-05-04 03:42:00,62.0,48.0,29.71,NW,306,0.0,-999.0,61,-99.99,,,-99.99,,2013-05-04 10:42:00,
2013-05-04 03:52:00,62.0,48.0,29.70,NW,306,0.0,-999.0,61,-99.99,,,-99.99,,2013-05-04 10:52:00,
2013-05-04 04:02:00,63.0,50.0,29.70,WNW,292,2.0,-999.0,62,-99.99,,,-99.99,,2013-05-04 11:02:00,
2013-05-04 04:11:00,63.0,50.0,29.70,WNW,292,2.0,-999.0,62,-99.99,,,-99.99,,2013-05-04 11:11:00,
2013-05-04 04:21:00,64.0,50.0,29.70,NW,304,4.0,-999.0,60,-99.99,,,-99.99,,2013-05-04 11:21:00,
2013-05-04 04:32:00,64.0,49.0,29.69,NW,308,3.0,-999.0,58,-99.99,,,-99.99,,2013-05-04 11:32:00,
2013-05-04 04:42:00,64.0,49.0,29.69,NW,308,3.0,-999.0,58,-99.99,,,-99.99,,2013-05-04 11:42:00,
2013-05-04 04:53:00,65.0,49.0,29.69,NNE,15,2.0,-999.0,57,-99.99,,,-99.99,,2013-05-04 11:53:00,
2013-05-04 05:03:00,65.0,48.0,29.69,NNW,343,2.0,-999.0,54,-99.99,,,-99.99,,2013-05-04 12:03:00,
2013-05-04 05:12:00,65.0,48.0,29.69,NNW,343,2.0,-999.0,54,-99.99,,,-99.99,,2013-05-04 12:12:00,
2013-05-04 05:23:00,65.0,47.0,29.69,NNW,343,1.0,-999.0,52,-99.99,,,-99.99,,2013-05-04 12:23:00,
2013-05-04 05:33:00,65.0,45.0,29.68,NW,319,2.0,-999.0,49,-99.99,,,-99.99,,2013-05-04 12:33:00,
2013-05-04 05:41:00,65.0,45.0,29.68,NW,319,2.0,-999.0,49,-99.99,,,-99.99,,2013-05-04 12:41:00,
2013-05-04 05:51:00,65.0,45.0,29.68,NW,316,1.0,-999.0,48,-99.99,,,-99.99,,2013-05-04 12:51:00,
2013-05-04 06:01:00,65.0,46.0,29.68,NW,316,0.0,-999.0,50,-99.99,,,-99.99,,2013-05-04 13:01:00,
2013-05-04 06:21:00,64.0,47.0,29.69,NNW,331,3.0,-999.0,53,-99.99,,,-99.99,,2013-05-04 13:21:00,
2013-05-04 06:32:00,63.0,46.0,29.69,NNW,333,2.0,-999.0,54,-99.99,,,-99.99,,2013-05-04 13:32:00,
2013-05-04 06:41:00,63.0,46.0,29.69,NNW,333,2.0,-999.0,54,-99.99,,,-99.99,,2013-05-04 13:41:00,
2013-05-04 06:52:00,63.0,46.0,29.68,NW,304,2.0,-999.0,53,-99.99,,,-99.99,,2013-05-04 13:52:00,
2013-05-04 07:02:00,63.0,45.0,29.68,NW,315,2.0,-999.0,52,-99.99,,,-99.99,,2013-05-04 14:02:00,
2013-05-04 07:11:00,63.0,45.0,29.68,NW,315,2.0,-999.0,52,-99.99,,,-99.99,,2013-05-04 14:11:00,
2013-05-04 07:21:00,63.0,44.0,29.68,West,275,3.0,-999.0,50,-99.99,,,-99.99,,2013-05-04 14:21:00,
2013-05-04 07:32:00,64.0,44.0,29.68,WNW,298,3.0,-999.0,48,-99.99,,,-99.99,,2013-05-04 14:32:00,
2013-05-04 07:41:00,64.0,44.0,29.68,WNW,298,3.0,-999.0,48,-99.99,,,-99.99,,2013-05-04 14:41:00,
2013-05-04 07:51:00,65.0,44.0,29.68,West,280,4.0,-999.0,46,-99.99,,,-99.99,,2013-05-04 14:51:00,
2013-05-04 08:01:00,66.0,43.0,29.68,West,269,6.0,-999.0,43,-99.99,,,-99.99,,2013-05-04 15:01:00,
2013-05-04 08:11:00,66.0,43.0,29.68,West,269,6.0,-999.0,43,-99.99,,,-99.99,,2013-05-04 15:11:00,
2013-05-04 08:21:00,66.0,42.0,29.68,NW,317,6.0,-999.0,41,-99.99,,,-99.99,,2013-05-04 15:21:00,
2013-05-04 08:33:00,67.0,42.0,29.67,WNW,292,4.0,-999.0,40,-99.99,,,-99.99,,2013-05-04 15:33:00,
2013-05-04 08:42:00,67.0,42.0,29.67,WNW,292,4.0,-999.0,40,-99.99,,,-99.99,,2013-05-04 15:42:00,
2013-05-04 08:52:00,69.0,42.0,29.67,NW,312,6.0,-999.0,38,-99.99,,,-99.99,,2013-05-04 15:52:00,
2013-05-04 09:03:00,70.0,43.0,29.67,WNW,296,5.0,-999.0,38,-99.99,,,-99.99,,2013-05-04 16:03:00,
2013-05-04 09:12:00,70.0,43.0,29.67,WNW,296,5.0,-999.0,38,-99.99,,,-99.99,,2013-05-04 16:12:00,
2013-05-04 09:22:00,71.0,44.0,29.66,NW,306,4.0,-999.0,38,-99.99,,,-99.99,,2013-05-04 16:22:00,
2013-05-04 09:33:00,73.0,44.0,29.65,NW,325,3.0,-999.0,36,-99.99,,,-99.99,,2013-05-04 16:33:00,
2013-05-04 09:42:00,73.0,44.0,29.65,NW,325,3.0,-999.0,36,-99.99,,,-99.99,,2013-05-04 16:42:00,
2013-05-04 09:52:00,75.0,43.0,29.65,WNW,287,4.0,-999.0,32,-99.99,,,-99.99,,2013-05-04 16:52:00,
2013-05-04 10:02:00,76.0,43.0,29.64,NNW,335,4.0,-999.0,31,-99.99,,,-99.99,,2013-05-04 17:02:00,
2013-05-04 10:12:00,76.0,43.0,29.64,NNW,335,4.0,-999.0,31,-99.99,,,-99.99,,2013-05-04 17:12:00,
2013-05-04 10:22:00,78.0,40.0,29.64,WNW,298,4.0,-999.0,26,-99.99,,,-99.99,,2013-05-04 17:22:00,
2013-05-04 10:32:00,80.0,40.0,29.64,NNW,329,5.0,-999.0,24,-99.99,,,-99.99,,2013-05-04 17:32:00,
2013-05-04 10:42:00,80.0,40.0,29.64,NNW,329,5.0,-999.0,24,-99.99,,,-99.99,,2013-05-04 17:42:00,
2013-05-04 10:52:00,81.0,40.0,29.64,WNW,302,5.0,-999.0,23,-99.99,,,-99.99,,2013-05-04 17:52:00,
2013-05-04 11:01:00,82.0,39.0,29.64,NW,315,6.0,-999.0,22,-99.99,,,-99.99,,2013-05-04 18:01:00,
2013-05-04 11:12:00,82.0,39.0,29.64,NW,315,6.0,-999.0,22,-99.99,,,-99.99,,2013-05-04 18:12:00,
2013-05-04 11:21:00,82.0,39.0,29.63,West,278,5.0,-999.0,22,-99.99,,,-99.99,,2013-05-04 18:21:00,
2013-05-04 11:32:00,83.0,38.0,29.62,NNW,335,6.0,-999.0,20,-99.99,,,-99.99,,2013-05-04 18:32:00,
2013-05-04 11:42:00,83.0,38.0,29.62,NNW,335,6.0,-999.0,20,-99.99,,,-99.99,,2013-05-04 18:42:00,
2013-05-04 11:52:00,83.0,41.0,29.62,WNW,296,7.0,-999.0,23,-99.99,,,-99.99,,2013-05-04 18:52:00,
2013-05-04 12:01:00,84.0,40.0,29.62,NW,304,6.0,-999.0,21,-99.99,,,-99.99,,2013-05-04 19:01:00,
2013-05-04 12:11:00,84.0,40.0,29.62,NW,304,6.0,-999.0,21,-99.99,,,-99.99,,2013-05-04 19:11:00,
2013-05-04 12:21:00,84.0,40.0,29.61,WNW,294,5.0,-999.0,21,-99.99,,,-99.99,,2013-05-04 19:21:00,
2013-05-04 12:31:00,85.0,41.0,29.60,NW,315,5.0,-999.0,21,-99.99,,,-99.99,,2013-05-04 19:31:00,
2013-05-04 12:41:00,85.0,41.0,29.60,NW,315,5.0,-999.0,21,-99.99,,,-99.99,,2013-05-04 19:41:00,
2013-05-04 12:52:00,85.0,38.0,29.59,NW,313,4.0,-999.0,19,-99.99,,,-99.99,,2013-05-04 19:52:00,
2013-05-04 13:01:00,85.0,38.0,29.59,ENE,61,6.0,-999.0,19,-99.99,,,-99.99,,2013-05-04 20:01:00,
2013-05-04 13:11:00,85.0,38.0,29.59,ENE,61,6.0,-999.0,19,-99.99,,,-99.99,,2013-05-04 20:11:00,
2013-05-04 13:21:00,86.0,39.0,29.58,WNW,288,4.0,-999.0,19,-99.99,,,-99.99,,2013-05-04 20:21:00,
2013-05-04 13:31:00,86.0,39.0,29.57,WNW,295,3.0,-999.0,19,-99.99,,,-99.99,,2013-05-04 20:31:00,
2013-05-04 13:41:00,86.0,39.0,29.57,WNW,295,3.0,-999.0,19,-99.99,,,-99.99,,2013-05-04 20:41:00,
2013-05-04 13:51:00,87.0,40.0,29.57,WNW,299,3.0,-999.0,19,-99.99,,,-99.99,,2013-05-04 20:51:00,
2013-05-04 14:01:00,87.0,38.0,29.57,NNW,346,4.0,-999.0,18,-99.99,,,-99.99,,2013-05-04 21:01:00,
2013-05-04 14:11:00,87.0,38.0,29.57,NNW,346,4.0,-999.0,18,-99.99,,,-99.99,,2013-05-04 21:11:00,
2013-05-04 14:21:00,86.0,36.0,29.57,WNW,296,4.0,-999.0,17,-99.99,,,-99.99,,2013-05-04 21:21:00,
2013-05-04 14:33:00,87.0,38.0,29.57,NNW,331,4.0,-999.0,18,-99.99,,,-99.99,,2013-05-04 21:33:00,
2013-05-04 14:43:00,87.0,38.0,29.57,NNW,331,4.0,-999.0,18,-99.99,,,-99.99,,2013-05-04 21:43:00,
2013-05-04 14:52:00,87.0,40.0,29.56,NNW,344,4.0,-999.0,19,-99.99,,,-99.99,,2013-05-04 21:52:00,
2013-05-04 15:02:00,87.0,35.0,29.55,NW,309,4.0,-999.0,16,-99.99,,,-99.99,,2013-05-04 22:02:00,
2013-05-04 15:12:00,87.0,35.0,29.55,NW,309,4.0,-999.0,16,-99.99,,,-99.99,,2013-05-04 22:12:00,
2013-05-04 15:22:00,87.0,35.0,29.55,WNW,303,4.0,-999.0,16,-99.99,,,-99.99,,2013-05-04 22:22:00,
2013-05-04 15:32:00,88.0,36.0,29.54,NW,323,3.0,-999.0,16,-99.99,,,-99.99,,2013-05-04 22:32:00,
2013-05-04 15:42:00,88.0,36.0,29.54,NW,323,3.0,-999.0,16,-99.99,,,-99.99,,2013-05-04 22:42:00,
2013-05-04 15:52:00,88.0,36.0,29.53,NW,315,4.0,-999.0,16,-99.99,,,-99.99,,2013-05-04 22:52:00,
2013-05-04 16:02:00,89.0,35.0,29.52,WNW,294,2.0,-999.0,15,-99.99,,,-99.99,,2013-05-04 23:02:00,
2013-05-04 16:11:00,89.0,35.0,29.52,WNW,294,2.0,-999.0,15,-99.99,,,-99.99,,2013-05-04 23:11:00,
2013-05-04 16:21:00,89.0,40.0,29.52,WNW,300,3.0,-999.0,18,-99.99,,,-99.99,,2013-05-04 23:21:00,
2013-05-04 16:32:00,89.0,35.0,29.51,WNW,286,2.0,-999.0,15,-99.99,,,-99.99,,2013-05-04 23:32:00,
2013-05-04 16:42:00,89.0,35.0,29.51,WNW,286,2.0,-999.0,15,-99.99,,,-99.99,,2013-05-04 23:42:00,
2013-05-04 16:52:00,88.0,38.0,29.51,WNW,297,2.0,-999.0,17,-99.99,,,-99.99,,2013-05-04 23:52:00,
2013-05-04 17:01:00,89.0,40.0,29.49,WNW,290,2.0,-999.0,18,-99.99,,,-99.99,,2013-05-05 00:01:00,
2013-05-04 17:21:00,89.0,38.0,29.49,WNW,303,3.0,-999.0,17,-99.99,,,-99.99,,2013-05-05 00:21:00,
2013-05-04 17:31:00,89.0,37.0,29.49,WNW,293,3.0,-999.0,16,-99.99,,,-99.99,,2013-05-05 00:31:00,
2013-05-04 17:42:00,89.0,37.0,29.49,WNW,293,3.0,-999.0,16,-99.99,,,-99.99,,2013-05-05 00:42:00,
2013-05-04 17:51:00,89.0,38.0,29.49,West,281,4.0,-999.0,17,-99.99,,,-99.99,,2013-05-05 00:51:00,
2013-05-04 18:01:00,88.0,38.0,29.48,WNW,293,2.0,-999.0,17,-99.99,,,-99.99,,2013-05-05 01:01:00,
2013-05-04 18:11:00,88.0,38.0,29.48,WNW,293,2.0,-999.0,17,-99.99,,,-99.99,,2013-05-05 01:11:00,
2013-05-04 18:21:00,87.0,37.0,29.48,NW,317,3.0,-999.0,17,-99.99,,,-99.99,,2013-05-05 01:21:00,
2013-05-04 18:32:00,87.0,37.0,29.48,NNW,333,1.0,-999.0,17,-99.99,,,-99.99,,2013-05-05 01:32:00,
2013-05-04 18:42:00,87.0,37.0,29.48,NNW,333,1.0,-999.0,17,-99.99,,,-99.99,,2013-05-05 01:42:00,
2013-05-04 18:52:00,87.0,35.0,29.48,WNW,300,2.0,-999.0,16,-99.99,,,-99.99,,2013-05-05 01:52:00,
2013-05-04 19:02:00,86.0,39.0,29.47,NW,308,1.0,-999.0,19,-99.99,,,-99.99,,2013-05-05 02:02:00,
2013-05-04 19:11:00,86.0,39.0,29.47,NW,308,1.0,-999.0,19,-99.99,,,-99.99,,2013-05-05 02:11:00,
2013-05-04 19:21:00,86.0,36.0,29.47,NW,308,0.0,-999.0,17,-99.99,,,-99.99,,2013-05-05 02:21:00,
2013-05-04 19:31:00,85.0,35.0,29.47,NW,304,0.0,-999.0,17,-99.99,,,-99.99,,2013-05-05 02:31:00,
2013-05-04 19:42:00,85.0,35.0,29.47,NW,304,0.0,-999.0,17,-99.99,,,-99.99,,2013-05-05 02:42:00,
2013-05-04 19:51:00,84.0,39.0,29.47,NW,304,0.0,-999.0,20,-99.99,,,-99.99,,2013-05-05 02:51:00,
2013-05-04 20:01:00,84.0,41.0,29.47,NW,304,0.0,-999.0,22,-99.99,,,-99.99,,2013-05-05 03:01:00,
2013-05-04 20:21:00,82.0,42.0,29.47,NW,304,0.0,-999.0,24,-99.99,,,-99.99,,2013-05-05 03:21:00,
2013-05-04 20:32:00,81.0,43.0,29.47,NW,304,0.0,-999.0,26,-99.99,,,-99.99,,2013-05-05 03:32:00,
2013-05-04 20:52:00,78.0,45.0,29.47,WNW,294,0.0,-999.0,31,-99.99,,,-99.99,,2013-05-05 03:52:00,
2013-05-04 21:02:00,77.0,47.0,29.48,WNW,294,0.0,-999.0,35,-99.99,,,-99.99,,2013-05-05 04:02:00,
2013-05-04 21:12:00,77.0,47.0,29.48,WNW,294,0.0,-999.0,35,-99.99,,,-99.99,,2013-05-05 04:12:00,
2013-05-04 21:22:00,76.0,49.0,29.49,WNW,285,0.0,-999.0,38,-99.99,,,-99.99,,2013-05-05 04:22:00,
2013-05-04 21:32:00,74.0,49.0,29.49,WNW,285,0.0,-999.0,42,-99.99,,,-99.99,,2013-05-05 04:32:00,
2013-05-04 21:43:00,74.0,49.0,29.49,WNW,285,0.0,-999.0,42,-99.99,,,-99.99,,2013-05-05 04:43:00,
2013-05-04 21:52:00,72.0,50.0,29.49,WNW,285,0.0,-999.0,46,-99.99,,,-99.99,,2013-05-05 04:52:00,
2013-05-04 22:02:00,69.0,49.0,29.50,West,270,0.0,-999.0,49,-99.99,,,-99.99,,2013-05-05 05:02:00,
2013-05-04 22:12:00,69.0,49.0,29.50,West,270,0.0,-999.0,49,-99.99,,,-99.99,,2013-05-05 05:12:00,
2013-05-04 22:21:00,67.0,49.0,29.50,West,266,1.0,-999.0,53,-99.99,,,-99.99,,2013-05-05 05:21:00,
2013-05-04 22:31:00,66.0,50.0,29.51,West,266,0.0,-999.0,56,-99.99,,,-99.99,,2013-05-05 05:31:00,
2013-05-04 22:42:00,66.0,50.0,29.51,West,266,0.0,-999.0,56,-99.99,,,-99.99,,2013-05-05 05:42:00,
2013-05-04 22:51:00,65.0,50.0,29.51,WNW,284,0.0,-999.0,58,-99.99,,,-99.99,,2013-05-05 05:51:00,
2013-05-04 23:01:00,64.0,49.0,29.51,WSW,256,0.0,-999.0,59,-99.99,,,-99.99,,2013-05-05 06:01:00,
2013-05-04 23:11:00,64.0,49.0,29.51,WSW,256,0.0,-999.0,59,-99.99,,,-99.99,,2013-05-05 06:11:00,
2013-05-04 23:21:00,63.0,49.0,29.52,ENE,57,1.0,-999.0,61,-99.99,,,-99.99,,2013-05-05 06:21:00,
2013-05-04 23:31:00,63.0,49.0,29.53,ESE,109,0.0,-999.0,61,-99.99,,,-99.99,,2013-05-05 06:31:00,
2013-05-04 23:42:00,63.0,49.0,29.53,ESE,109,0.0,-999.0,61,-99.99,,,-99.99,,2013-05-05 06:42:00,
2013-05-04 23:51:00,62.0,49.0,29.54,East,101,1.0,-999.0,63,-99.99,,,-99.99,,2013-05-05 06:51:00,